createdAt,value
2022-10-17T00:01:22.373Z,2.27
2022-10-17T00:04:10.729Z,2.20
2022-10-17T00:09:45.820Z,2.20
2022-10-17T00:15:45.502Z,2.30
2022-10-17T00:21:25.355Z,2.17
2022-10-17T00:27:02.937Z,2.10
2022-10-17T00:32:39.289Z,2.20
2022-10-17T00:38:15.534Z,2.23
2022-10-17T00:44:00.874Z,2.20
2022-10-17T00:49:43.781Z,2.33
2022-10-17T00:55:25.979Z,1.93
2022-10-17T01:01:03.514Z,2.30
2022-10-17T01:06:45.121Z,1.90
2022-10-17T01:15:26.483Z,2.00
2022-10-17T01:21:24.855Z,2.30
2022-10-17T01:27:34.533Z,2.10
2022-10-17T01:36:56.234Z,1.70
2022-10-17T01:42:43.202Z,1.87
2022-10-17T01:48:21.916Z,2.07
2022-10-17T01:54:01.326Z,1.90
2022-10-17T01:59:41.097Z,2.10
2022-10-17T02:05:12.062Z,1.97
2022-10-17T02:08:00.813Z,1.90
2022-10-17T02:13:42.120Z,1.83
2022-10-17T02:19:38.576Z,1.70
2022-10-17T02:25:19.843Z,1.70
2022-10-17T02:28:13.225Z,2.00
2022-10-17T02:36:39.389Z,1.90
2022-10-17T02:42:24.079Z,3.03
2022-10-17T02:48:01.518Z,3.13
2022-10-17T02:53:45.221Z,2.70
2022-10-17T02:59:19.687Z,3.00
2022-10-17T03:04:58.645Z,2.67
2022-10-17T03:07:52.351Z,2.83
2022-10-17T03:13:28.868Z,2.97
2022-10-17T03:16:17.033Z,2.40
2022-10-17T03:21:44.007Z,2.93
2022-10-17T03:27:18.577Z,2.70
2022-10-17T03:30:08.634Z,2.63
2022-10-17T03:32:56.993Z,2.93
2022-10-17T03:38:25.392Z,2.67
2022-10-17T03:44:04.558Z,2.83
2022-10-17T03:49:44.935Z,2.70
2022-10-17T03:58:14.922Z,2.60
2022-10-17T04:01:08.083Z,2.80
2022-10-17T04:03:58.453Z,2.37
2022-10-17T04:06:50.139Z,3.00
2022-10-17T04:12:30.954Z,2.97
2022-10-17T04:18:13.531Z,3.07
2022-10-17T04:23:55.536Z,3.03
2022-10-17T04:29:32.055Z,2.73
2022-10-17T04:32:20.360Z,3.17
2022-10-17T04:37:59.087Z,3.53
2022-10-17T04:43:35.970Z,3.23
2022-10-17T04:46:24.993Z,3.27
2022-10-17T04:52:02.496Z,3.07
2022-10-17T04:54:52.856Z,2.97
2022-10-17T05:00:28.242Z,3.20
2022-10-17T05:06:15.132Z,4.63
2022-10-17T05:11:55.454Z,3.10
2022-10-17T05:17:26.330Z,3.10
2022-10-17T05:20:15.907Z,3.63
2022-10-17T05:25:58.281Z,4.07
2022-10-17T05:28:47.964Z,2.97
2022-10-17T05:31:36.382Z,3.30
2022-10-17T05:37:17.231Z,3.30
2022-10-17T05:40:06.796Z,3.50
2022-10-17T05:42:56.665Z,3.43
2022-10-17T05:48:31.161Z,3.63
2022-10-17T05:51:20.726Z,3.60
2022-10-17T05:57:04.656Z,3.77
2022-10-17T06:02:59.275Z,4.17
2022-10-17T06:05:54.027Z,5.00
2022-10-17T06:08:43.700Z,4.37
2022-10-17T06:14:18.655Z,4.00
2022-10-17T06:17:08.402Z,4.20
2022-10-17T06:22:48.752Z,4.00
2022-10-17T06:28:23.872Z,4.67
2022-10-17T06:31:14.511Z,4.47
2022-10-17T06:42:29.729Z,4.10
2022-10-17T06:48:05.091Z,3.27
2022-10-17T06:50:54.957Z,3.70
2022-10-17T06:56:33.392Z,4.20
2022-10-17T06:59:21.845Z,3.70
2022-10-17T07:02:11.791Z,4.13
2022-10-17T07:10:38.698Z,4.00
2022-10-17T07:16:12.169Z,5.23
2022-10-17T07:21:48.935Z,4.30
2022-10-17T07:27:32.072Z,4.40
2022-10-17T07:33:21.814Z,4.27
2022-10-17T07:38:51.872Z,4.13
2022-10-17T07:44:31.958Z,4.70
2022-10-17T07:47:20.982Z,4.60
2022-10-17T07:50:10.545Z,4.23
2022-10-17T07:53:01.477Z,4.13
2022-10-17T07:55:51.576Z,4.43
2022-10-17T07:58:40.526Z,4.50
2022-10-17T08:04:23.881Z,4.83
2022-10-17T08:12:43.765Z,4.10
2022-10-17T08:15:32.312Z,4.40
2022-10-17T08:18:20.753Z,4.50
2022-10-17T08:23:57.425Z,4.27
2022-10-17T08:26:48.290Z,4.30
2022-10-17T08:32:25.051Z,3.97
2022-10-17T08:38:11.032Z,4.67
2022-10-17T08:44:08.560Z,4.60
2022-10-17T08:46:59.004Z,4.73
2022-10-17T08:49:51.624Z,5.07
2022-10-17T08:55:29.247Z,4.50
2022-10-17T09:01:13.079Z,4.63
2022-10-17T09:04:23.807Z,4.50
2022-10-17T09:07:14.800Z,3.57
2022-10-17T09:10:06.390Z,3.83
2022-10-17T09:12:58.207Z,4.10
2022-10-17T09:18:37.571Z,4.93
2022-10-17T09:21:29.093Z,4.97
2022-10-17T09:27:00.104Z,4.80
2022-10-17T09:29:50.547Z,4.50
2022-10-17T09:35:27.285Z,5.60
2022-10-17T09:38:20.774Z,4.40
2022-10-17T09:43:58.716Z,4.43
2022-10-17T09:49:51.076Z,4.77
2022-10-17T09:55:37.034Z,4.90
2022-10-17T09:58:52.650Z,4.50
2022-10-17T10:01:42.141Z,4.10
2022-10-17T10:07:14.075Z,3.57
2022-10-17T10:10:03.408Z,3.33
2022-10-17T10:15:55.076Z,2.40
2022-10-17T10:21:30.236Z,2.53
2022-10-17T10:24:20.274Z,2.40
2022-10-17T10:32:41.916Z,2.03
2022-10-17T10:35:34.713Z,2.07
2022-10-17T10:41:07.429Z,2.37
2022-10-17T10:47:10.556Z,2.13
2022-10-17T10:50:17.200Z,2.17
2022-10-17T10:53:16.315Z,2.53
2022-10-17T10:56:06.920Z,2.40
2022-10-17T10:59:01.369Z,2.20
2022-10-17T11:04:35.403Z,2.50
2022-10-17T11:07:27.392Z,2.47
2022-10-17T11:13:03.768Z,2.73
2022-10-17T11:18:33.072Z,2.60
2022-10-17T11:21:28.768Z,2.50
2022-10-17T11:29:54.047Z,2.77
2022-10-17T11:35:35.345Z,2.27
2022-10-17T11:41:17.158Z,2.40
2022-10-17T11:46:52.426Z,2.40
2022-10-17T11:53:03.664Z,2.30
2022-10-17T11:58:34.818Z,2.53
2022-10-17T12:07:23.496Z,2.67
2022-10-17T12:13:41.843Z,2.47
2022-10-17T12:19:50.041Z,2.70
2022-10-17T12:25:26.123Z,2.80
2022-10-17T12:28:17.729Z,2.90
2022-10-17T12:33:54.341Z,2.80
2022-10-17T12:36:43.713Z,2.53
2022-10-17T12:42:53.729Z,2.60
2022-10-17T12:49:05.818Z,2.70
2022-10-17T12:55:14.082Z,2.00
2022-10-17T12:58:04.689Z,2.30
2022-10-17T13:03:36.345Z,1.77
2022-10-17T13:06:26.987Z,1.97
2022-10-17T13:12:11.662Z,2.00
2022-10-17T13:17:43.903Z,1.80
2022-10-17T13:23:25.553Z,1.70
2022-10-17T13:29:06.630Z,1.80
2022-10-17T13:34:38.638Z,1.80
2022-10-17T13:40:40.453Z,2.27
2022-10-17T13:46:19.248Z,2.00
2022-10-17T13:48:54.037Z,2.00
2022-10-17T13:54:47.063Z,1.77
2022-10-17T14:03:09.872Z,1.90
2022-10-17T14:06:03.709Z,1.77
2022-10-17T14:11:42.095Z,2.10
2022-10-17T14:17:18.581Z,1.73
2022-10-17T14:25:44.340Z,2.00
2022-10-17T14:31:37.794Z,2.00
2022-10-17T14:37:33.727Z,2.00
2022-10-17T14:43:07.217Z,2.00
2022-10-17T14:46:00.817Z,1.83
2022-10-17T14:52:03.837Z,2.20
2022-10-17T14:57:40.257Z,2.10
2022-10-17T15:03:18.897Z,2.33
2022-10-17T15:09:05.261Z,1.87
2022-10-17T15:11:54.430Z,2.03
2022-10-17T15:14:43.247Z,1.93
2022-10-17T15:17:35.192Z,2.10
2022-10-17T15:23:07.181Z,2.07
2022-10-17T15:29:01.661Z,2.13
2022-10-17T15:31:51.658Z,1.93
2022-10-17T15:34:40.492Z,2.40
2022-10-17T15:37:31.261Z,1.93
2022-10-17T15:43:17.375Z,2.90
2022-10-17T15:48:49.158Z,2.10
2022-10-17T15:54:36.703Z,2.57
2022-10-17T15:57:27.578Z,2.43
2022-10-17T16:03:19.668Z,2.77
2022-10-17T16:08:56.845Z,2.60
2022-10-17T16:14:28.253Z,2.20
2022-10-17T16:20:04.534Z,2.33
2022-10-17T16:25:31.474Z,2.70
2022-10-17T16:31:20.302Z,2.53
2022-10-17T16:36:56.740Z,2.57
2022-10-17T16:42:32.928Z,2.70
2022-10-17T16:45:30.337Z,3.17
2022-10-17T16:51:07.847Z,2.83
2022-10-17T16:53:58.446Z,2.60
2022-10-17T16:59:34.776Z,2.90
2022-10-17T17:05:12.334Z,2.70
2022-10-17T17:10:51.550Z,2.47
2022-10-17T17:16:30.371Z,2.70
2022-10-17T17:22:07.388Z,2.90
2022-10-17T17:27:49.579Z,3.00
2022-10-17T17:33:28.403Z,3.60
2022-10-17T17:40:02.804Z,3.20
2022-10-17T17:48:19.429Z,3.90
2022-10-17T17:53:53.360Z,2.97
2022-10-17T17:59:31.126Z,3.30
2022-10-17T18:05:08.985Z,3.03
2022-10-17T18:10:44.583Z,2.97
2022-10-17T18:13:33.234Z,3.40
2022-10-17T18:19:11.762Z,2.60
2022-10-17T18:24:42.059Z,3.33
2022-10-17T18:30:16.328Z,2.77
2022-10-17T18:33:06.777Z,3.10
2022-10-17T18:38:39.631Z,3.23
2022-10-17T18:44:09.104Z,3.43
2022-10-17T18:47:55.552Z,3.33
2022-10-17T18:52:45.364Z,3.40
2022-10-17T18:58:18.694Z,4.00
2022-10-17T19:03:59.166Z,3.60
2022-10-17T19:09:36.541Z,3.33
2022-10-17T19:12:25.939Z,3.83
2022-10-17T19:18:19.579Z,4.07
2022-10-17T19:24:00.231Z,3.37
2022-10-17T19:29:44.172Z,4.17
2022-10-17T19:35:24.499Z,4.27
2022-10-17T19:40:54.821Z,4.07
2022-10-17T19:46:31.157Z,3.93
2022-10-17T19:52:14.890Z,4.10
2022-10-17T19:55:04.093Z,4.10
2022-10-17T20:00:49.230Z,4.20
2022-10-17T20:03:37.451Z,3.93
2022-10-17T20:06:26.286Z,3.93
2022-10-17T20:23:08.704Z,4.13
2022-10-17T20:28:47.679Z,3.80
2022-10-17T20:34:20.458Z,4.00
2022-10-17T20:40:33.213Z,4.17
2022-10-17T20:45:51.549Z,4.60
2022-10-17T20:51:20.902Z,4.80
2022-10-17T20:57:01.064Z,4.70
2022-10-17T20:59:48.386Z,4.43
2022-10-17T21:05:24.738Z,5.47
2022-10-17T21:11:11.316Z,4.80
2022-10-17T21:16:50.079Z,5.17
2022-10-17T21:22:20.803Z,5.10
2022-10-17T21:27:59.728Z,4.53
2022-10-17T21:33:40.585Z,4.67
2022-10-17T21:36:29.263Z,4.47
2022-10-17T21:42:06.946Z,4.13
2022-10-17T21:44:57.497Z,4.10
2022-10-17T21:48:11.112Z,4.33
2022-10-17T21:50:36.800Z,4.30
2022-10-17T21:56:14.845Z,4.00
2022-10-17T22:01:49.129Z,4.50
2022-10-17T22:04:37.154Z,4.47
2022-10-17T22:07:29.078Z,4.20
2022-10-17T22:10:20.672Z,4.40
2022-10-17T22:13:10.222Z,4.53
2022-10-17T22:18:49.084Z,4.13
2022-10-17T22:24:40.494Z,4.53
2022-10-17T22:30:37.101Z,4.57
2022-10-17T22:36:15.912Z,5.00
2022-10-17T22:41:45.849Z,4.53
2022-10-17T22:44:34.087Z,4.70
2022-10-17T22:47:22.334Z,4.83
2022-10-17T22:50:12.375Z,4.60
2022-10-17T22:53:02.073Z,4.50
2022-10-17T22:58:52.785Z,4.20
2022-10-17T23:01:41.300Z,4.10
2022-10-17T23:04:30.594Z,4.67
2022-10-17T23:10:12.921Z,4.73
2022-10-17T23:15:52.275Z,3.80
2022-10-17T23:21:28.477Z,4.33
2022-10-17T23:24:16.729Z,4.43
2022-10-17T23:29:58.358Z,4.20
2022-10-17T23:32:46.422Z,4.50
2022-10-17T23:35:35.216Z,4.00
2022-10-17T23:38:23.523Z,4.63
2022-10-17T23:41:11.708Z,4.00
2022-10-17T23:46:42.639Z,4.23
2022-10-17T23:52:31.674Z,4.80
2022-10-17T23:58:03.637Z,4.57
